sensor_id;sensor_type;location;lat;lon;timestamp;P1;durP1;ratioP1;P2;durP2;ratioP2
15673;SDS011;7937;48.090;16.212;2024-02-23T00:01:39;4.20;;;3.20;;
15673;SDS011;7937;48.090;16.212;2024-02-23T00:04:41;4.73;;;2.60;;
15673;SDS011;7937;48.090;16.212;2024-02-23T00:07:44;7.07;;;3.00;;
15673;SDS011;7937;48.090;16.212;2024-02-23T00:10:46;5.47;;;2.67;;
15673;SDS011;7937;48.090;16.212;2024-02-23T00:13:48;5.10;;;3.00;;
15673;SDS011;7937;48.090;16.212;2024-02-23T00:16:50;5.53;;;3.40;;
15673;SDS011;7937;48.090;16.212;2024-02-23T00:19:53;3.20;;;2.80;;
15673;SDS011;7937;48.090;16.212;2024-02-23T00:22:55;3.13;;;2.60;;
15673;SDS011;7937;48.090;16.212;2024-02-23T00:25:57;4.33;;;3.70;;
15673;SDS011;7937;48.090;16.212;2024-02-23T00:28:59;8.13;;;5.00;;
15673;SDS011;7937;48.090;16.212;2024-02-23T00:32:01;7.73;;;3.37;;
15673;SDS011;7937;48.090;16.212;2024-02-23T00:35:04;4.73;;;3.47;;
15673;SDS011;7937;48.090;16.212;2024-02-23T00:38:07;5.70;;;3.33;;
15673;SDS011;7937;48.090;16.212;2024-02-23T00:41:09;9.13;;;3.00;;
15673;SDS011;7937;48.090;16.212;2024-02-23T00:44:12;2.53;;;2.27;;
15673;SDS011;7937;48.090;16.212;2024-02-23T00:47:14;3.40;;;2.10;;
15673;SDS011;7937;48.090;16.212;2024-02-23T00:50:16;4.80;;;2.07;;
15673;SDS011;7937;48.090;16.212;2024-02-23T00:53:19;3.70;;;2.57;;
15673;SDS011;7937;48.090;16.212;2024-02-23T00:56:22;6.40;;;2.53;;
15673;SDS011;7937;48.090;16.212;2024-02-23T00:59:33;2.87;;;2.00;;
15673;SDS011;7937;48.090;16.212;2024-02-23T01:02:36;7.30;;;3.63;;
15673;SDS011;7937;48.090;16.212;2024-02-23T01:05:39;5.17;;;3.00;;
15673;SDS011;7937;48.090;16.212;2024-02-23T01:08:41;4.23;;;2.90;;
15673;SDS011;7937;48.090;16.212;2024-02-23T01:11:43;2.50;;;2.27;;
15673;SDS011;7937;48.090;16.212;2024-02-23T01:14:46;3.90;;;2.80;;
15673;SDS011;7937;48.090;16.212;2024-02-23T01:17:50;5.13;;;3.20;;
15673;SDS011;7937;48.090;16.212;2024-02-23T01:20:52;12.23;;;8.27;;
15673;SDS011;7937;48.090;16.212;2024-02-23T01:23:54;11.57;;;7.23;;
15673;SDS011;7937;48.090;16.212;2024-02-23T01:26:57;8.83;;;4.77;;
15673;SDS011;7937;48.090;16.212;2024-02-23T01:30:00;6.17;;;4.63;;
15673;SDS011;7937;48.090;16.212;2024-02-23T01:33:02;4.60;;;3.43;;
15673;SDS011;7937;48.090;16.212;2024-02-23T01:36:05;5.80;;;3.30;;
15673;SDS011;7937;48.090;16.212;2024-02-23T01:39:08;2.90;;;2.60;;
15673;SDS011;7937;48.090;16.212;2024-02-23T01:42:13;3.30;;;2.60;;
15673;SDS011;7937;48.090;16.212;2024-02-23T01:45:16;6.30;;;2.40;;
15673;SDS011;7937;48.090;16.212;2024-02-23T01:48:18;4.43;;;2.10;;
15673;SDS011;7937;48.090;16.212;2024-02-23T01:51:21;2.30;;;1.90;;
15673;SDS011;7937;48.090;16.212;2024-02-23T01:54:24;2.90;;;2.03;;
15673;SDS011;7937;48.090;16.212;2024-02-23T01:57:26;1.93;;;1.73;;
15673;SDS011;7937;48.090;16.212;2024-02-23T02:00:49;2.00;;;1.63;;
15673;SDS011;7937;48.090;16.212;2024-02-23T02:03:51;3.80;;;1.70;;
15673;SDS011;7937;48.090;16.212;2024-02-23T02:06:54;2.87;;;1.60;;
15673;SDS011;7937;48.090;16.212;2024-02-23T02:09:57;1.70;;;1.53;;
15673;SDS011;7937;48.090;16.212;2024-02-23T02:13:03;2.33;;;1.60;;
15673;SDS011;7937;48.090;16.212;2024-02-23T02:16:07;1.60;;;1.40;;
15673;SDS011;7937;48.090;16.212;2024-02-23T02:19:10;2.90;;;1.33;;
15673;SDS011;7937;48.090;16.212;2024-02-23T02:22:12;1.50;;;1.40;;
15673;SDS011;7937;48.090;16.212;2024-02-23T02:25:15;1.73;;;1.20;;
15673;SDS011;7937;48.090;16.212;2024-02-23T02:28:17;4.93;;;1.73;;
15673;SDS011;7937;48.090;16.212;2024-02-23T02:31:19;5.70;;;1.50;;
15673;SDS011;7937;48.090;16.212;2024-02-23T02:34:21;3.07;;;1.57;;
15673;SDS011;7937;48.090;16.212;2024-02-23T02:37:23;2.50;;;2.07;;
15673;SDS011;7937;48.090;16.212;2024-02-23T02:40:26;2.93;;;2.00;;
15673;SDS011;7937;48.090;16.212;2024-02-23T02:43:28;2.70;;;1.40;;
15673;SDS011;7937;48.090;16.212;2024-02-23T02:46:30;2.50;;;1.20;;
15673;SDS011;7937;48.090;16.212;2024-02-23T02:49:32;2.63;;;1.60;;
15673;SDS011;7937;48.090;16.212;2024-02-23T02:52:34;2.67;;;1.40;;
15673;SDS011;7937;48.090;16.212;2024-02-23T02:55:41;1.70;;;1.53;;
15673;SDS011;7937;48.090;16.212;2024-02-23T02:58:44;3.67;;;1.70;;
15673;SDS011;7937;48.090;16.212;2024-02-23T03:01:46;2.53;;;1.70;;
15673;SDS011;7937;48.090;16.212;2024-02-23T03:04:49;3.07;;;1.60;;
15673;SDS011;7937;48.090;16.212;2024-02-23T03:07:52;2.67;;;1.20;;
15673;SDS011;7937;48.090;16.212;2024-02-23T03:10:55;6.20;;;2.87;;
15673;SDS011;7937;48.090;16.212;2024-02-23T03:13:58;2.83;;;2.20;;
15673;SDS011;7937;48.090;16.212;2024-02-23T03:17:00;1.47;;;1.37;;
15673;SDS011;7937;48.090;16.212;2024-02-23T03:20:03;3.70;;;2.67;;
15673;SDS011;7937;48.090;16.212;2024-02-23T03:23:13;4.20;;;2.90;;
15673;SDS011;7937;48.090;16.212;2024-02-23T03:26:15;2.20;;;1.90;;
15673;SDS011;7937;48.090;16.212;2024-02-23T03:29:18;3.30;;;1.50;;
15673;SDS011;7937;48.090;16.212;2024-02-23T03:32:21;2.60;;;1.57;;
15673;SDS011;7937;48.090;16.212;2024-02-23T03:35:24;3.40;;;2.00;;
15673;SDS011;7937;48.090;16.212;2024-02-23T03:38:26;4.70;;;1.70;;
15673;SDS011;7937;48.090;16.212;2024-02-23T03:41:32;3.43;;;2.00;;
15673;SDS011;7937;48.090;16.212;2024-02-23T03:44:35;3.50;;;1.50;;
15673;SDS011;7937;48.090;16.212;2024-02-23T03:47:37;1.80;;;1.70;;
15673;SDS011;7937;48.090;16.212;2024-02-23T03:50:40;2.00;;;1.60;;
15673;SDS011;7937;48.090;16.212;2024-02-23T03:53:42;2.80;;;1.77;;
15673;SDS011;7937;48.090;16.212;2024-02-23T03:56:45;2.83;;;1.73;;
15673;SDS011;7937;48.090;16.212;2024-02-23T03:59:53;1.70;;;1.33;;
15673;SDS011;7937;48.090;16.212;2024-02-23T04:02:56;4.27;;;3.87;;
15673;SDS011;7937;48.090;16.212;2024-02-23T04:05:59;4.97;;;3.93;;
15673;SDS011;7937;48.090;16.212;2024-02-23T04:09:01;4.63;;;4.00;;
15673;SDS011;7937;48.090;16.212;2024-02-23T04:12:07;5.40;;;4.20;;
15673;SDS011;7937;48.090;16.212;2024-02-23T04:15:09;5.23;;;4.13;;
15673;SDS011;7937;48.090;16.212;2024-02-23T04:18:11;4.10;;;3.70;;
15673;SDS011;7937;48.090;16.212;2024-02-23T04:21:13;5.27;;;4.77;;
15673;SDS011;7937;48.090;16.212;2024-02-23T04:24:17;4.57;;;4.00;;
15673;SDS011;7937;48.090;16.212;2024-02-23T04:27:19;4.67;;;3.70;;
15673;SDS011;7937;48.090;16.212;2024-02-23T04:30:21;5.63;;;3.93;;
15673;SDS011;7937;48.090;16.212;2024-02-23T04:33:23;4.07;;;3.70;;
15673;SDS011;7937;48.090;16.212;2024-02-23T04:36:25;3.90;;;3.03;;
15673;SDS011;7937;48.090;16.212;2024-02-23T04:39:27;3.23;;;2.73;;
15673;SDS011;7937;48.090;16.212;2024-02-23T04:42:29;2.50;;;2.00;;
15673;SDS011;7937;48.090;16.212;2024-02-23T04:45:32;2.17;;;1.90;;
15673;SDS011;7937;48.090;16.212;2024-02-23T04:48:34;1.97;;;1.33;;
15673;SDS011;7937;48.090;16.212;2024-02-23T04:51:37;1.50;;;1.10;;
15673;SDS011;7937;48.090;16.212;2024-02-23T04:54:39;0.80;;;0.80;;
15673;SDS011;7937;48.090;16.212;2024-02-23T04:57:41;0.70;;;0.70;;
15673;SDS011;7937;48.090;16.212;2024-02-23T05:00:44;0.40;;;0.40;;
15673;SDS011;7937;48.090;16.212;2024-02-23T05:03:46;0.83;;;0.67;;
15673;SDS011;7937;48.090;16.212;2024-02-23T05:06:48;0.70;;;0.50;;
15673;SDS011;7937;48.090;16.212;2024-02-23T05:09:50;0.83;;;0.60;;
15673;SDS011;7937;48.090;16.212;2024-02-23T05:12:53;0.57;;;0.57;;
15673;SDS011;7937;48.090;16.212;2024-02-23T05:15:55;0.83;;;0.50;;
15673;SDS011;7937;48.090;16.212;2024-02-23T05:18:58;0.63;;;0.43;;
15673;SDS011;7937;48.090;16.212;2024-02-23T05:22:00;0.30;;;0.30;;
15673;SDS011;7937;48.090;16.212;2024-02-23T05:25:03;0.60;;;0.40;;
15673;SDS011;7937;48.090;16.212;2024-02-23T05:28:06;0.87;;;0.30;;
15673;SDS011;7937;48.090;16.212;2024-02-23T05:31:11;0.63;;;0.30;;
15673;SDS011;7937;48.090;16.212;2024-02-23T05:34:14;0.63;;;0.50;;
15673;SDS011;7937;48.090;16.212;2024-02-23T05:37:16;0.57;;;0.27;;
15673;SDS011;7937;48.090;16.212;2024-02-23T05:40:19;0.50;;;0.50;;
15673;SDS011;7937;48.090;16.212;2024-02-23T05:43:21;0.20;;;0.20;;
15673;SDS011;7937;48.090;16.212;2024-02-23T05:46:23;0.40;;;0.40;;
15673;SDS011;7937;48.090;16.212;2024-02-23T05:49:25;0.53;;;0.20;;
15673;SDS011;7937;48.090;16.212;2024-02-23T05:52:27;0.30;;;0.30;;
15673;SDS011;7937;48.090;16.212;2024-02-23T05:55:30;1.00;;;0.50;;
15673;SDS011;7937;48.090;16.212;2024-02-23T05:58:32;0.20;;;0.20;;
15673;SDS011;7937;48.090;16.212;2024-02-23T06:01:34;0.60;;;0.30;;
15673;SDS011;7937;48.090;16.212;2024-02-23T06:04:36;0.47;;;0.30;;
15673;SDS011;7937;48.090;16.212;2024-02-23T06:07:38;0.80;;;0.30;;
15673;SDS011;7937;48.090;16.212;2024-02-23T06:10:41;0.20;;;0.20;;
15673;SDS011;7937;48.090;16.212;2024-02-23T06:13:45;0.30;;;0.20;;
15673;SDS011;7937;48.090;16.212;2024-02-23T06:16:47;0.77;;;0.20;;
15673;SDS011;7937;48.090;16.212;2024-02-23T06:19:50;0.50;;;0.30;;
15673;SDS011;7937;48.090;16.212;2024-02-23T06:22:55;0.20;;;0.20;;
15673;SDS011;7937;48.090;16.212;2024-02-23T06:25:57;1.27;;;0.20;;
15673;SDS011;7937;48.090;16.212;2024-02-23T06:28:59;0.10;;;0.10;;
15673;SDS011;7937;48.090;16.212;2024-02-23T06:32:02;0.10;;;0.10;;
15673;SDS011;7937;48.090;16.212;2024-02-23T06:35:05;0.50;;;0.20;;
15673;SDS011;7937;48.090;16.212;2024-02-23T06:38:08;0.10;;;0.10;;
15673;SDS011;7937;48.090;16.212;2024-02-23T06:41:11;0.10;;;0.10;;
15673;SDS011;7937;48.090;16.212;2024-02-23T06:44:14;0.27;;;0.23;;
15673;SDS011;7937;48.090;16.212;2024-02-23T06:47:16;0.33;;;0.20;;
15673;SDS011;7937;48.090;16.212;2024-02-23T06:50:18;0.83;;;0.30;;
15673;SDS011;7937;48.090;16.212;2024-02-23T06:53:20;0.57;;;0.20;;
15673;SDS011;7937;48.090;16.212;2024-02-23T06:56:23;0.57;;;0.20;;
15673;SDS011;7937;48.090;16.212;2024-02-23T06:59:25;2.17;;;0.20;;
15673;SDS011;7937;48.090;16.212;2024-02-23T07:02:27;0.23;;;0.20;;
15673;SDS011;7937;48.090;16.212;2024-02-23T07:05:33;0.20;;;0.20;;
15673;SDS011;7937;48.090;16.212;2024-02-23T07:08:37;0.53;;;0.20;;
15673;SDS011;7937;48.090;16.212;2024-02-23T07:11:40;0.20;;;0.20;;
15673;SDS011;7937;48.090;16.212;2024-02-23T07:14:45;0.40;;;0.20;;
15673;SDS011;7937;48.090;16.212;2024-02-23T07:17:47;0.50;;;0.20;;
15673;SDS011;7937;48.090;16.212;2024-02-23T07:20:49;0.30;;;0.20;;
15673;SDS011;7937;48.090;16.212;2024-02-23T07:23:51;0.10;;;0.10;;
15673;SDS011;7937;48.090;16.212;2024-02-23T07:26:54;0.20;;;0.20;;
15673;SDS011;7937;48.090;16.212;2024-02-23T07:29:56;0.20;;;0.17;;
15673;SDS011;7937;48.090;16.212;2024-02-23T07:32:58;0.30;;;0.20;;
15673;SDS011;7937;48.090;16.212;2024-02-23T07:36:01;0.10;;;0.10;;
15673;SDS011;7937;48.090;16.212;2024-02-23T07:39:03;0.10;;;0.10;;
15673;SDS011;7937;48.090;16.212;2024-02-23T07:42:05;0.83;;;0.10;;
15673;SDS011;7937;48.090;16.212;2024-02-23T07:45:08;0.27;;;0.20;;
15673;SDS011;7937;48.090;16.212;2024-02-23T07:48:11;0.50;;;0.20;;
15673;SDS011;7937;48.090;16.212;2024-02-23T07:51:13;1.50;;;0.40;;
15673;SDS011;7937;48.090;16.212;2024-02-23T07:54:15;0.20;;;0.20;;
15673;SDS011;7937;48.090;16.212;2024-02-23T07:57:18;0.33;;;0.27;;
15673;SDS011;7937;48.090;16.212;2024-02-23T08:00:21;2.30;;;0.30;;
15673;SDS011;7937;48.090;16.212;2024-02-23T08:03:26;1.10;;;0.50;;
15673;SDS011;7937;48.090;16.212;2024-02-23T08:06:28;0.50;;;0.20;;
15673;SDS011;7937;48.090;16.212;2024-02-23T08:09:30;0.23;;;0.23;;
15673;SDS011;7937;48.090;16.212;2024-02-23T08:12:32;0.30;;;0.20;;
15673;SDS011;7937;48.090;16.212;2024-02-23T08:15:41;0.20;;;0.20;;
15673;SDS011;7937;48.090;16.212;2024-02-23T08:18:43;2.30;;;0.37;;
15673;SDS011;7937;48.090;16.212;2024-02-23T08:21:45;0.40;;;0.30;;
15673;SDS011;7937;48.090;16.212;2024-02-23T08:24:48;0.30;;;0.20;;
15673;SDS011;7937;48.090;16.212;2024-02-23T08:27:50;0.27;;;0.27;;
15673;SDS011;7937;48.090;16.212;2024-02-23T08:30:52;0.30;;;0.30;;
15673;SDS011;7937;48.090;16.212;2024-02-23T08:33:55;0.80;;;0.30;;
15673;SDS011;7937;48.090;16.212;2024-02-23T08:36:57;0.20;;;0.20;;
15673;SDS011;7937;48.090;16.212;2024-02-23T08:39:59;0.20;;;0.20;;
15673;SDS011;7937;48.090;16.212;2024-02-23T08:43:01;0.30;;;0.20;;
15673;SDS011;7937;48.090;16.212;2024-02-23T08:46:04;0.10;;;0.10;;
15673;SDS011;7937;48.090;16.212;2024-02-23T08:49:10;0.20;;;0.20;;
15673;SDS011;7937;48.090;16.212;2024-02-23T08:52:12;1.30;;;0.30;;
15673;SDS011;7937;48.090;16.212;2024-02-23T08:55:15;0.20;;;0.20;;
15673;SDS011;7937;48.090;16.212;2024-02-23T08:58:20;0.57;;;0.43;;
15673;SDS011;7937;48.090;16.212;2024-02-23T09:01:22;1.30;;;0.33;;
15673;SDS011;7937;48.090;16.212;2024-02-23T09:04:24;0.50;;;0.40;;
15673;SDS011;7937;48.090;16.212;2024-02-23T09:07:26;0.40;;;0.30;;
15673;SDS011;7937;48.090;16.212;2024-02-23T09:10:29;0.67;;;0.33;;
15673;SDS011;7937;48.090;16.212;2024-02-23T09:13:31;0.73;;;0.27;;
15673;SDS011;7937;48.090;16.212;2024-02-23T09:16:33;0.30;;;0.27;;
15673;SDS011;7937;48.090;16.212;2024-02-23T09:19:35;0.20;;;0.20;;
15673;SDS011;7937;48.090;16.212;2024-02-23T09:22:38;0.40;;;0.30;;
15673;SDS011;7937;48.090;16.212;2024-02-23T09:25:41;0.20;;;0.20;;
15673;SDS011;7937;48.090;16.212;2024-02-23T09:28:45;0.20;;;0.20;;
15673;SDS011;7937;48.090;16.212;2024-02-23T09:31:47;0.30;;;0.30;;
15673;SDS011;7937;48.090;16.212;2024-02-23T09:34:49;1.10;;;0.20;;
15673;SDS011;7937;48.090;16.212;2024-02-23T09:37:51;0.30;;;0.30;;
15673;SDS011;7937;48.090;16.212;2024-02-23T09:40:54;0.20;;;0.20;;
15673;SDS011;7937;48.090;16.212;2024-02-23T09:43:58;0.10;;;0.10;;
15673;SDS011;7937;48.090;16.212;2024-02-23T09:47:01;0.20;;;0.20;;
15673;SDS011;7937;48.090;16.212;2024-02-23T09:50:10;0.20;;;0.20;;
15673;SDS011;7937;48.090;16.212;2024-02-23T09:53:13;0.20;;;0.20;;
15673;SDS011;7937;48.090;16.212;2024-02-23T09:56:16;0.10;;;0.10;;
15673;SDS011;7937;48.090;16.212;2024-02-23T09:59:20;0.50;;;0.23;;
15673;SDS011;7937;48.090;16.212;2024-02-23T10:02:22;0.40;;;0.30;;
15673;SDS011;7937;48.090;16.212;2024-02-23T10:05:29;0.67;;;0.30;;
15673;SDS011;7937;48.090;16.212;2024-02-23T10:08:38;0.30;;;0.30;;
15673;SDS011;7937;48.090;16.212;2024-02-23T10:11:40;0.47;;;0.20;;
15673;SDS011;7937;48.090;16.212;2024-02-23T10:14:42;0.20;;;0.20;;
15673;SDS011;7937;48.090;16.212;2024-02-23T10:17:44;0.10;;;0.10;;
15673;SDS011;7937;48.090;16.212;2024-02-23T10:20:48;0.30;;;0.17;;
15673;SDS011;7937;48.090;16.212;2024-02-23T10:23:52;0.20;;;0.20;;
15673;SDS011;7937;48.090;16.212;2024-02-23T10:26:54;0.47;;;0.30;;
15673;SDS011;7937;48.090;16.212;2024-02-23T10:29:57;0.20;;;0.20;;
15673;SDS011;7937;48.090;16.212;2024-02-23T10:32:59;0.40;;;0.20;;
15673;SDS011;7937;48.090;16.212;2024-02-23T10:36:01;0.63;;;0.30;;
15673;SDS011;7937;48.090;16.212;2024-02-23T10:39:06;1.03;;;0.20;;
15673;SDS011;7937;48.090;16.212;2024-02-23T10:42:10;0.20;;;0.20;;
15673;SDS011;7937;48.090;16.212;2024-02-23T10:45:15;0.63;;;0.30;;
15673;SDS011;7937;48.090;16.212;2024-02-23T10:48:19;0.50;;;0.43;;
15673;SDS011;7937;48.090;16.212;2024-02-23T10:51:22;2.13;;;0.40;;
15673;SDS011;7937;48.090;16.212;2024-02-23T10:54:25;0.40;;;0.40;;
15673;SDS011;7937;48.090;16.212;2024-02-23T10:57:28;0.40;;;0.40;;
15673;SDS011;7937;48.090;16.212;2024-02-23T11:00:30;0.40;;;0.40;;
15673;SDS011;7937;48.090;16.212;2024-02-23T11:03:33;0.80;;;0.50;;
15673;SDS011;7937;48.090;16.212;2024-02-23T11:06:39;0.33;;;0.27;;
15673;SDS011;7937;48.090;16.212;2024-02-23T11:09:42;0.40;;;0.40;;
15673;SDS011;7937;48.090;16.212;2024-02-23T11:12:44;0.63;;;0.50;;
15673;SDS011;7937;48.090;16.212;2024-02-23T11:15:46;0.63;;;0.43;;
15673;SDS011;7937;48.090;16.212;2024-02-23T11:18:49;0.20;;;0.20;;
15673;SDS011;7937;48.090;16.212;2024-02-23T11:21:52;0.57;;;0.57;;
15673;SDS011;7937;48.090;16.212;2024-02-23T11:24:59;0.87;;;0.60;;
15673;SDS011;7937;48.090;16.212;2024-02-23T11:28:20;3.07;;;0.80;;
15673;SDS011;7937;48.090;16.212;2024-02-23T11:31:24;2.57;;;0.60;;
15673;SDS011;7937;48.090;16.212;2024-02-23T11:34:30;0.80;;;0.70;;
15673;SDS011;7937;48.090;16.212;2024-02-23T11:37:32;2.47;;;0.90;;
15673;SDS011;7937;48.090;16.212;2024-02-23T11:40:46;1.00;;;0.80;;
15673;SDS011;7937;48.090;16.212;2024-02-23T11:43:50;1.30;;;0.77;;
15673;SDS011;7937;48.090;16.212;2024-02-23T11:46:53;1.00;;;0.63;;
15673;SDS011;7937;48.090;16.212;2024-02-23T11:49:55;0.73;;;0.73;;
15673;SDS011;7937;48.090;16.212;2024-02-23T11:52:57;2.77;;;0.60;;
15673;SDS011;7937;48.090;16.212;2024-02-23T11:56:01;1.53;;;0.60;;
15673;SDS011;7937;48.090;16.212;2024-02-23T11:59:04;1.23;;;0.77;;
15673;SDS011;7937;48.090;16.212;2024-02-23T12:02:06;0.60;;;0.53;;
15673;SDS011;7937;48.090;16.212;2024-02-23T12:05:09;1.03;;;0.70;;
15673;SDS011;7937;48.090;16.212;2024-02-23T12:08:11;1.43;;;0.63;;
15673;SDS011;7937;48.090;16.212;2024-02-23T12:11:14;0.93;;;0.50;;
15673;SDS011;7937;48.090;16.212;2024-02-23T12:14:17;0.70;;;0.60;;
15673;SDS011;7937;48.090;16.212;2024-02-23T12:17:19;2.63;;;0.83;;
15673;SDS011;7937;48.090;16.212;2024-02-23T12:20:21;1.83;;;0.60;;
15673;SDS011;7937;48.090;16.212;2024-02-23T12:23:24;0.70;;;0.50;;
15673;SDS011;7937;48.090;16.212;2024-02-23T12:26:26;0.80;;;0.63;;
15673;SDS011;7937;48.090;16.212;2024-02-23T12:29:28;1.43;;;0.80;;
15673;SDS011;7937;48.090;16.212;2024-02-23T12:32:31;1.03;;;0.83;;
15673;SDS011;7937;48.090;16.212;2024-02-23T12:35:33;1.10;;;1.00;;
15673;SDS011;7937;48.090;16.212;2024-02-23T12:38:37;2.07;;;1.10;;
15673;SDS011;7937;48.090;16.212;2024-02-23T12:41:40;0.80;;;0.80;;
15673;SDS011;7937;48.090;16.212;2024-02-23T12:44:43;1.57;;;0.97;;
15673;SDS011;7937;48.090;16.212;2024-02-23T12:47:45;1.50;;;1.10;;
15673;SDS011;7937;48.090;16.212;2024-02-23T12:50:48;3.13;;;1.13;;
15673;SDS011;7937;48.090;16.212;2024-02-23T12:53:51;0.80;;;0.80;;
15673;SDS011;7937;48.090;16.212;2024-02-23T12:56:53;1.43;;;1.20;;
15673;SDS011;7937;48.090;16.212;2024-02-23T12:59:55;1.90;;;0.97;;
15673;SDS011;7937;48.090;16.212;2024-02-23T13:02:57;1.77;;;1.10;;
15673;SDS011;7937;48.090;16.212;2024-02-23T13:06:00;2.13;;;1.20;;
15673;SDS011;7937;48.090;16.212;2024-02-23T13:09:02;1.13;;;1.03;;
15673;SDS011;7937;48.090;16.212;2024-02-23T13:12:06;1.63;;;1.43;;
15673;SDS011;7937;48.090;16.212;2024-02-23T13:15:08;1.53;;;1.40;;
15673;SDS011;7937;48.090;16.212;2024-02-23T13:18:11;1.30;;;1.20;;
15673;SDS011;7937;48.090;16.212;2024-02-23T13:21:13;1.93;;;1.30;;
15673;SDS011;7937;48.090;16.212;2024-02-23T13:24:16;1.43;;;1.33;;
15673;SDS011;7937;48.090;16.212;2024-02-23T13:27:18;1.63;;;1.43;;
15673;SDS011;7937;48.090;16.212;2024-02-23T13:30:20;1.77;;;1.67;;
15673;SDS011;7937;48.090;16.212;2024-02-23T13:33:22;2.23;;;1.80;;
15673;SDS011;7937;48.090;16.212;2024-02-23T13:36:25;1.90;;;1.50;;
15673;SDS011;7937;48.090;16.212;2024-02-23T13:39:28;2.13;;;1.87;;
15673;SDS011;7937;48.090;16.212;2024-02-23T13:42:30;2.33;;;2.13;;
15673;SDS011;7937;48.090;16.212;2024-02-23T13:45:33;3.83;;;2.00;;
15673;SDS011;7937;48.090;16.212;2024-02-23T13:48:35;2.23;;;2.00;;
15673;SDS011;7937;48.090;16.212;2024-02-23T13:51:38;2.20;;;1.80;;
15673;SDS011;7937;48.090;16.212;2024-02-23T13:54:40;3.07;;;2.40;;
15673;SDS011;7937;48.090;16.212;2024-02-23T13:57:43;2.17;;;1.93;;
15673;SDS011;7937;48.090;16.212;2024-02-23T14:00:45;2.27;;;2.07;;
15673;SDS011;7937;48.090;16.212;2024-02-23T14:03:47;2.17;;;1.83;;
15673;SDS011;7937;48.090;16.212;2024-02-23T14:06:49;2.00;;;1.80;;
15673;SDS011;7937;48.090;16.212;2024-02-23T14:09:51;2.30;;;2.10;;
15673;SDS011;7937;48.090;16.212;2024-02-23T14:12:53;2.20;;;1.93;;
15673;SDS011;7937;48.090;16.212;2024-02-23T14:15:57;2.47;;;2.00;;
15673;SDS011;7937;48.090;16.212;2024-02-23T14:18:59;2.73;;;2.13;;
15673;SDS011;7937;48.090;16.212;2024-02-23T14:22:01;4.53;;;2.27;;
15673;SDS011;7937;48.090;16.212;2024-02-23T14:25:03;2.53;;;1.90;;
15673;SDS011;7937;48.090;16.212;2024-02-23T14:28:06;2.17;;;1.73;;
15673;SDS011;7937;48.090;16.212;2024-02-23T14:31:08;2.63;;;2.03;;
15673;SDS011;7937;48.090;16.212;2024-02-23T14:34:11;2.50;;;1.80;;
15673;SDS011;7937;48.090;16.212;2024-02-23T14:37:13;2.60;;;2.17;;
15673;SDS011;7937;48.090;16.212;2024-02-23T14:40:16;2.90;;;2.30;;
15673;SDS011;7937;48.090;16.212;2024-02-23T14:43:18;3.07;;;2.27;;
15673;SDS011;7937;48.090;16.212;2024-02-23T14:46:20;3.90;;;2.37;;
15673;SDS011;7937;48.090;16.212;2024-02-23T14:49:22;2.60;;;2.40;;
15673;SDS011;7937;48.090;16.212;2024-02-23T14:52:24;2.63;;;2.03;;
15673;SDS011;7937;48.090;16.212;2024-02-23T14:55:27;2.97;;;2.40;;
15673;SDS011;7937;48.090;16.212;2024-02-23T14:58:29;3.43;;;2.17;;
15673;SDS011;7937;48.090;16.212;2024-02-23T15:01:31;4.47;;;1.90;;
15673;SDS011;7937;48.090;16.212;2024-02-23T15:04:34;3.43;;;2.03;;
15673;SDS011;7937;48.090;16.212;2024-02-23T15:07:36;2.17;;;1.83;;
15673;SDS011;7937;48.090;16.212;2024-02-23T15:10:39;2.37;;;2.17;;
15673;SDS011;7937;48.090;16.212;2024-02-23T15:13:41;3.27;;;1.83;;
15673;SDS011;7937;48.090;16.212;2024-02-23T15:16:43;2.20;;;1.90;;
15673;SDS011;7937;48.090;16.212;2024-02-23T15:19:46;2.80;;;2.30;;
15673;SDS011;7937;48.090;16.212;2024-02-23T15:22:48;4.03;;;2.10;;
15673;SDS011;7937;48.090;16.212;2024-02-23T15:25:51;3.00;;;2.63;;
15673;SDS011;7937;48.090;16.212;2024-02-23T15:29:07;2.50;;;2.30;;
15673;SDS011;7937;48.090;16.212;2024-02-23T15:32:09;3.13;;;2.50;;
15673;SDS011;7937;48.090;16.212;2024-02-23T15:35:14;2.60;;;2.40;;
15673;SDS011;7937;48.090;16.212;2024-02-23T15:38:17;3.20;;;2.57;;
15673;SDS011;7937;48.090;16.212;2024-02-23T15:41:19;2.37;;;2.17;;
15673;SDS011;7937;48.090;16.212;2024-02-23T15:44:21;2.60;;;2.40;;
15673;SDS011;7937;48.090;16.212;2024-02-23T15:47:23;3.97;;;2.43;;
15673;SDS011;7937;48.090;16.212;2024-02-23T15:50:26;3.17;;;2.87;;
15673;SDS011;7937;48.090;16.212;2024-02-23T15:53:49;2.97;;;2.40;;
15673;SDS011;7937;48.090;16.212;2024-02-23T15:56:52;4.40;;;2.83;;
15673;SDS011;7937;48.090;16.212;2024-02-23T15:59:54;3.37;;;2.83;;
15673;SDS011;7937;48.090;16.212;2024-02-23T16:03:05;3.50;;;2.90;;
15673;SDS011;7937;48.090;16.212;2024-02-23T16:06:07;3.50;;;2.90;;
15673;SDS011;7937;48.090;16.212;2024-02-23T16:09:09;3.30;;;2.90;;
15673;SDS011;7937;48.090;16.212;2024-02-23T16:12:16;3.23;;;2.80;;
15673;SDS011;7937;48.090;16.212;2024-02-23T16:15:18;5.37;;;2.83;;
15673;SDS011;7937;48.090;16.212;2024-02-23T16:18:21;4.40;;;3.10;;
15673;SDS011;7937;48.090;16.212;2024-02-23T16:21:23;3.50;;;2.60;;
15673;SDS011;7937;48.090;16.212;2024-02-23T16:24:25;3.80;;;3.30;;
15673;SDS011;7937;48.090;16.212;2024-02-23T16:27:27;3.33;;;2.50;;
15673;SDS011;7937;48.090;16.212;2024-02-23T16:30:30;4.17;;;3.03;;
15673;SDS011;7937;48.090;16.212;2024-02-23T16:33:34;4.60;;;2.90;;
15673;SDS011;7937;48.090;16.212;2024-02-23T16:36:36;4.20;;;3.30;;
15673;SDS011;7937;48.090;16.212;2024-02-23T16:39:38;4.20;;;2.80;;
15673;SDS011;7937;48.090;16.212;2024-02-23T16:42:40;4.57;;;2.63;;
15673;SDS011;7937;48.090;16.212;2024-02-23T16:45:46;3.93;;;2.90;;
15673;SDS011;7937;48.090;16.212;2024-02-23T16:48:48;3.43;;;2.93;;
15673;SDS011;7937;48.090;16.212;2024-02-23T16:51:50;5.67;;;3.10;;
15673;SDS011;7937;48.090;16.212;2024-02-23T16:54:52;3.10;;;2.80;;
15673;SDS011;7937;48.090;16.212;2024-02-23T16:57:54;4.20;;;3.40;;
15673;SDS011;7937;48.090;16.212;2024-02-23T17:00:56;2.93;;;2.67;;
15673;SDS011;7937;48.090;16.212;2024-02-23T17:03:59;4.67;;;3.20;;
15673;SDS011;7937;48.090;16.212;2024-02-23T17:07:01;4.93;;;3.27;;
15673;SDS011;7937;48.090;16.212;2024-02-23T17:10:03;3.33;;;2.70;;
15673;SDS011;7937;48.090;16.212;2024-02-23T17:13:07;3.90;;;3.50;;
15673;SDS011;7937;48.090;16.212;2024-02-23T17:16:09;7.33;;;3.60;;
15673;SDS011;7937;48.090;16.212;2024-02-23T17:19:11;3.47;;;3.17;;
15673;SDS011;7937;48.090;16.212;2024-02-23T17:22:14;4.43;;;3.83;;
15673;SDS011;7937;48.090;16.212;2024-02-23T17:25:16;3.90;;;3.50;;
15673;SDS011;7937;48.090;16.212;2024-02-23T17:28:19;4.20;;;2.97;;
15673;SDS011;7937;48.090;16.212;2024-02-23T17:31:21;4.77;;;3.00;;
15673;SDS011;7937;48.090;16.212;2024-02-23T17:34:23;5.33;;;3.47;;
15673;SDS011;7937;48.090;16.212;2024-02-23T17:37:25;3.63;;;3.00;;
15673;SDS011;7937;48.090;16.212;2024-02-23T17:40:27;4.27;;;3.50;;
15673;SDS011;7937;48.090;16.212;2024-02-23T17:43:30;3.77;;;3.17;;
15673;SDS011;7937;48.090;16.212;2024-02-23T17:46:32;3.93;;;3.23;;
15673;SDS011;7937;48.090;16.212;2024-02-23T17:49:34;4.13;;;3.07;;
15673;SDS011;7937;48.090;16.212;2024-02-23T17:52:36;4.73;;;3.47;;
15673;SDS011;7937;48.090;16.212;2024-02-23T17:55:39;3.90;;;3.50;;
15673;SDS011;7937;48.090;16.212;2024-02-23T17:58:41;5.00;;;3.73;;
15673;SDS011;7937;48.090;16.212;2024-02-23T18:01:43;3.63;;;2.87;;
15673;SDS011;7937;48.090;16.212;2024-02-23T18:04:45;4.27;;;3.30;;
15673;SDS011;7937;48.090;16.212;2024-02-23T18:07:48;6.50;;;3.30;;
15673;SDS011;7937;48.090;16.212;2024-02-23T18:10:50;4.97;;;3.33;;
15673;SDS011;7937;48.090;16.212;2024-02-23T18:13:53;5.27;;;3.80;;
15673;SDS011;7937;48.090;16.212;2024-02-23T18:16:57;3.90;;;3.33;;
15673;SDS011;7937;48.090;16.212;2024-02-23T18:19:59;4.03;;;3.23;;
15673;SDS011;7937;48.090;16.212;2024-02-23T18:23:01;3.73;;;3.30;;